Relatórios de METAR próximas

 

LPAR - Alverca, Portugal
Distance from station: S 38km
Actualizado: 22/11/2019 17:00
Parc. Nublado
Parc. Nublado
 Vento de ONO
Vento: ONO 26 km/h
Temperatura: 17°C
Ponto de Orvalho: 12°C
Humidade: 73%
Barómetro: 997 hPa
Nuvens: Parc. Nublado
Visibilidade: 10 km
Cloud details: Parc. Nublado 914 m
2019/11/22 17:00 LPAR 221700Z 29014KT 9999 SCT030 17/12 Q0997
LPPT - Lisbon/Portela, Portugal
Distance from station: S 52km
Actualizado: 22/11/2019 17:00
Parc. Nublado
Parc. Nublado
 Vento de O
Vento: O 22 km/h
Temperatura: 16°C
Ponto de Orvalho: 12°C
Humidade: 77%
Barómetro: 998 hPa
Nuvens: Parc. Nublado
Visibilidade: 10 km
Cloud details: Parc. Nublado 671 m
2019/11/22 17:00 LPPT 221700Z 27012KT 230V310 9999 SCT022 16/12 Q0998 WS R21
 
LPST - Sintra/Granja (a, Portugal
Distance from station: SSO 53km
Actualizado: 22/11/2019 17:00
Parc. Nublado
Parc. Nublado
 Vento de ONO
Vento: ONO 31 km/h
Temperatura: 15°C
Ponto de Orvalho: 11°C
Humidade: 77%
Barómetro: 999 hPa
Nuvens: Parc. Nublado
Visibilidade: 10 km
Cloud details: Parc. Nublado 671 m
2019/11/22 17:00 LPST 221700Z 29017KT 9999 SCT022 15/11 Q0999
LPMT - Montijo (por-Afb, Portugal
Distance from station: S 59km
Actualizado: 22/11/2019 17:00
Parc. Nublado
Parc. Nublado
 Vento de O
Vento: O 28 km/h, Rajada: 46 km/h
Temperatura: 17°C
Ponto de Orvalho: 11°C
Humidade: 68%
Barómetro: 998 hPa
Nuvens: Parc. Nublado
Visibilidade: 10 km
Cloud details: Few Clouds 914 m
Parc. Nublado 1372 m
2019/11/22 17:00 LPMT 221700Z 28015G25KT 9999 FEW030 SCT045 17/11 Q0998
 
LPCS - Cascais, Portugal
Distance from station: SSO 63km
Actualizado: 22/11/2019 17:00
Few Clouds
Few Clouds
 Vento de ONO
Vento: ONO 35 km/h, Rajada: 57 km/h
Temperatura: 16°C
Ponto de Orvalho: 11°C
Humidade: 72%
Barómetro: 999 hPa
Nuvens: Few Clouds
Visibilidade: 10 km
Cloud details: Few Clouds 762 m
2019/11/22 17:00 LPCS 221700Z 29019G31KT 9999 FEW025 16/11 Q0999
LPMR - Monte Real(Por-A, Portugal
Distance from station: N 67km
Actualizado: 22/11/2019 17:00
Few Clouds
Few Clouds
 Vento de O
Vento: O 19 km/h
Temperatura: 15°C
Ponto de Orvalho: 11°C
Humidade: 77%
Barómetro: 996 hPa
Nuvens: Few Clouds
Visibilidade: 10 km
Cloud details: Few Clouds 762 m
2019/11/22 17:00 LPMR 221700Z 27010KT 9999 FEW025 15/11 Q0996